createdAt,value
2022-10-06T00:01:09.695Z,62.34
2022-10-06T00:03:38.915Z,64.02
2022-10-06T00:06:07.512Z,63.51
2022-10-06T00:08:37.412Z,62.47
2022-10-06T00:11:06.406Z,63.29
2022-10-06T00:13:34.509Z,63.13
2022-10-06T00:16:02.696Z,63.14
2022-10-06T00:18:31.273Z,66.16
2022-10-06T00:21:01.411Z,65.13
2022-10-06T00:23:29.735Z,65.07
2022-10-06T00:25:58.440Z,63.69
2022-10-06T00:28:26.388Z,63.83
2022-10-06T00:30:56.422Z,64.28
2022-10-06T00:33:24.663Z,63.82
2022-10-06T00:36:00.981Z,64.10
2022-10-06T00:38:29.670Z,64.48
2022-10-06T00:40:57.553Z,64.55
2022-10-06T00:43:43.770Z,64.86
2022-10-06T00:46:29.101Z,64.92
2022-10-06T00:49:07.962Z,63.60
2022-10-06T00:51:39.272Z,63.17
2022-10-06T00:54:07.753Z,64.33
2022-10-06T00:56:35.476Z,66.56
2022-10-06T00:59:03.535Z,65.06
2022-10-06T01:01:32.572Z,64.44
2022-10-06T01:04:06.726Z,65.05
2022-10-06T01:06:45.354Z,67.54
2022-10-06T01:09:16.471Z,69.04
2022-10-06T01:11:47.338Z,69.85
2022-10-06T01:14:15.270Z,68.44
2022-10-06T01:16:47.526Z,68.59
2022-10-06T01:19:51.837Z,68.30
2022-10-06T01:22:37.275Z,68.46
2022-10-06T01:25:07.537Z,69.36
2022-10-06T01:27:37.830Z,68.37
2022-10-06T01:30:09.280Z,67.42
2022-10-06T01:32:39.174Z,66.42
2022-10-06T01:35:08.779Z,66.68
2022-10-06T01:37:36.644Z,68.63
2022-10-06T01:40:05.028Z,66.60
2022-10-06T01:42:35.845Z,66.54
2022-10-06T01:45:05.362Z,68.34
2022-10-06T01:47:34.776Z,69.77
2022-10-06T01:50:02.512Z,67.75
2022-10-06T01:52:30.548Z,66.63
2022-10-06T01:54:58.502Z,66.69
2022-10-06T01:57:26.364Z,67.91
2022-10-06T01:59:54.903Z,67.53
2022-10-06T02:02:24.255Z,68.15
2022-10-06T02:04:52.877Z,68.00
2022-10-06T02:07:20.573Z,67.38
2022-10-06T02:09:48.263Z,66.36
2022-10-06T02:12:17.025Z,66.61
2022-10-06T02:14:44.652Z,65.48
2022-10-06T02:17:12.802Z,64.83
2022-10-06T02:19:40.790Z,64.92
2022-10-06T02:22:08.824Z,64.68
2022-10-06T02:24:36.732Z,64.43
2022-10-06T02:27:06.001Z,66.48
2022-10-06T02:29:34.349Z,65.61
2022-10-06T02:32:02.818Z,65.06
2022-10-06T02:34:30.446Z,66.01
2022-10-06T02:36:58.708Z,65.33
2022-10-06T02:39:26.590Z,65.29
2022-10-06T02:41:54.306Z,64.91
2022-10-06T02:44:25.094Z,66.33
2022-10-06T02:46:53.705Z,65.17
2022-10-06T02:49:21.492Z,65.97
2022-10-06T02:51:49.980Z,66.26
2022-10-06T02:54:17.861Z,66.58
2022-10-06T02:56:45.744Z,65.41
2022-10-06T02:59:14.013Z,64.55
2022-10-06T03:01:42.156Z,64.67
2022-10-06T03:04:12.089Z,64.95
2022-10-06T03:06:41.627Z,66.12
2022-10-06T03:09:10.189Z,65.82
2022-10-06T03:11:41.232Z,65.37
2022-10-06T03:14:09.354Z,65.14
2022-10-06T03:16:40.072Z,66.18
2022-10-06T03:19:10.005Z,65.69
2022-10-06T03:21:42.182Z,65.15
2022-10-06T03:24:10.711Z,66.51
2022-10-06T03:26:41.985Z,65.41
2022-10-06T03:29:11.903Z,66.69
2022-10-06T03:31:40.681Z,67.24
2022-10-06T03:34:08.663Z,67.52
2022-10-06T03:36:36.698Z,65.14
2022-10-06T03:39:06.414Z,66.53
2022-10-06T03:41:36.791Z,67.00
2022-10-06T03:44:05.358Z,67.08
2022-10-06T03:46:34.872Z,65.17
2022-10-06T03:49:04.386Z,65.41
2022-10-06T03:51:38.412Z,65.75
2022-10-06T03:54:10.862Z,66.78
2022-10-06T03:56:41.240Z,65.02
2022-10-06T03:59:13.965Z,66.24
2022-10-06T04:01:45.463Z,67.08
2022-10-06T04:04:14.485Z,65.29
2022-10-06T04:06:44.554Z,67.66
2022-10-06T04:09:15.507Z,66.56
2022-10-06T04:11:45.081Z,66.44
2022-10-06T04:14:15.566Z,67.93
2022-10-06T04:16:50.783Z,67.29
2022-10-06T04:19:19.245Z,65.49
2022-10-06T04:21:48.150Z,66.28
2022-10-06T04:24:18.487Z,67.58
2022-10-06T04:26:49.093Z,66.71
2022-10-06T04:29:17.407Z,66.90
2022-10-06T04:31:46.259Z,67.46
2022-10-06T04:34:15.053Z,67.90
2022-10-06T04:36:43.574Z,67.67
2022-10-06T04:39:12.919Z,68.02
2022-10-06T04:41:42.811Z,66.90
2022-10-06T04:44:11.383Z,68.19
2022-10-06T04:46:44.541Z,66.39
2022-10-06T04:49:19.627Z,66.57
2022-10-06T04:51:49.779Z,66.13
2022-10-06T04:54:19.146Z,67.60
2022-10-06T04:56:47.325Z,69.55
2022-10-06T04:59:15.778Z,66.84
2022-10-06T05:01:44.007Z,66.53
2022-10-06T05:04:12.579Z,66.25
2022-10-06T05:06:42.382Z,67.58
2022-10-06T05:09:15.934Z,66.38
2022-10-06T05:11:44.388Z,65.82
2022-10-06T05:14:12.428Z,66.69
2022-10-06T05:16:40.754Z,67.41
2022-10-06T05:19:08.490Z,66.98
2022-10-06T05:21:37.867Z,66.30
2022-10-06T05:24:07.133Z,66.73
2022-10-06T05:26:36.242Z,66.85
2022-10-06T05:29:04.436Z,67.63
2022-10-06T05:31:35.247Z,68.30
2022-10-06T05:34:03.535Z,66.33
2022-10-06T05:36:34.090Z,67.13
2022-10-06T05:39:02.823Z,68.01
2022-10-06T05:41:33.620Z,67.09
2022-10-06T05:44:01.735Z,66.79
2022-10-06T05:46:31.452Z,65.73
2022-10-06T05:49:03.244Z,64.90
2022-10-06T05:51:32.032Z,65.75
2022-10-06T05:54:01.179Z,64.92
2022-10-06T05:56:37.315Z,64.38
2022-10-06T05:59:06.050Z,65.12
2022-10-06T06:01:42.066Z,64.95
2022-10-06T06:04:12.931Z,63.55
2022-10-06T06:06:48.791Z,64.49
2022-10-06T06:09:19.880Z,63.78
2022-10-06T06:11:51.033Z,63.99
2022-10-06T06:14:43.890Z,63.17
2022-10-06T06:17:12.282Z,63.54
2022-10-06T06:19:40.404Z,64.29
2022-10-06T06:22:08.273Z,63.26
2022-10-06T06:24:36.399Z,63.62
2022-10-06T06:27:04.366Z,61.99
2022-10-06T06:29:31.991Z,63.56
2022-10-06T06:32:00.021Z,63.04
2022-10-06T06:34:29.442Z,62.37
2022-10-06T06:37:02.366Z,61.26
2022-10-06T06:39:35.383Z,60.73
2022-10-06T06:42:05.204Z,62.13
2022-10-06T06:44:35.903Z,62.38
2022-10-06T06:47:03.786Z,62.11
2022-10-06T06:49:31.726Z,61.25
2022-10-06T06:52:03.376Z,60.24
2022-10-06T06:54:31.096Z,61.47
2022-10-06T06:57:00.515Z,60.92
2022-10-06T06:59:29.256Z,59.82
2022-10-06T07:01:57.798Z,60.83
2022-10-06T07:04:25.947Z,59.51
2022-10-06T07:06:58.080Z,59.97
2022-10-06T07:09:26.749Z,58.87
2022-10-06T07:11:55.781Z,62.03
2022-10-06T07:14:24.321Z,58.78
2022-10-06T07:17:10.958Z,60.27
2022-10-06T07:19:58.653Z,58.76
2022-10-06T07:22:47.471Z,59.87
2022-10-06T07:25:25.930Z,59.00
2022-10-06T07:27:55.221Z,57.98
2022-10-06T07:30:28.661Z,57.35
2022-10-06T07:32:57.051Z,58.04
2022-10-06T07:35:25.701Z,60.11
2022-10-06T07:37:53.683Z,59.56
2022-10-06T07:40:22.532Z,57.24
2022-10-06T07:42:53.697Z,57.22
2022-10-06T07:45:41.691Z,60.67
2022-10-06T07:48:14.520Z,58.40
2022-10-06T07:50:43.513Z,57.13
2022-10-06T07:53:12.870Z,56.80
2022-10-06T07:55:44.591Z,56.18
2022-10-06T07:58:14.352Z,55.86
2022-10-06T08:00:43.349Z,55.26
2022-10-06T08:03:14.521Z,54.98
2022-10-06T08:05:42.018Z,55.77
2022-10-06T08:08:09.580Z,56.53
2022-10-06T08:10:37.678Z,54.99
2022-10-06T08:13:06.635Z,53.86
2022-10-06T08:15:34.828Z,52.65
2022-10-06T08:18:12.222Z,52.87
2022-10-06T08:20:49.306Z,52.65
2022-10-06T08:23:17.318Z,52.13
2022-10-06T08:25:54.366Z,53.84
2022-10-06T08:28:22.610Z,51.20
2022-10-06T08:30:52.416Z,51.25
2022-10-06T08:33:21.597Z,50.40
2022-10-06T08:35:49.554Z,52.13
2022-10-06T08:38:17.470Z,49.95
2022-10-06T08:40:46.925Z,49.25
2022-10-06T08:43:20.479Z,50.50
2022-10-06T08:45:48.396Z,49.32
2022-10-06T08:48:28.674Z,49.46
2022-10-06T08:51:11.462Z,48.87
2022-10-06T08:53:51.805Z,48.85
2022-10-06T08:56:24.996Z,47.87
2022-10-06T08:59:04.402Z,47.34
2022-10-06T09:01:45.603Z,47.84
2022-10-06T09:04:29.625Z,45.12
2022-10-06T09:07:06.588Z,43.71
2022-10-06T09:10:04.549Z,44.98
2022-10-06T09:12:52.037Z,44.17
2022-10-06T09:15:55.078Z,44.12
2022-10-06T09:18:56.531Z,43.58
2022-10-06T09:21:36.681Z,41.87
2022-10-06T09:24:14.064Z,43.95
2022-10-06T09:26:45.058Z,43.29
2022-10-06T09:29:14.679Z,43.94
2022-10-06T09:31:48.972Z,42.45
2022-10-06T09:34:42.881Z,43.45
2022-10-06T09:37:13.627Z,41.89
2022-10-06T09:39:50.596Z,42.18
2022-10-06T09:42:29.591Z,40.88
2022-10-06T09:45:05.926Z,40.74
2022-10-06T09:47:35.708Z,41.02
2022-10-06T09:50:12.239Z,40.90
2022-10-06T09:53:01.498Z,41.00
2022-10-06T09:55:34.383Z,39.89
2022-10-06T09:58:03.110Z,39.92
2022-10-06T10:00:30.769Z,40.01
2022-10-06T10:03:01.545Z,39.20
2022-10-06T10:05:31.932Z,39.70
2022-10-06T10:08:32.370Z,39.88
2022-10-06T10:11:27.520Z,39.98
2022-10-06T10:13:59.111Z,39.63
2022-10-06T10:16:35.513Z,39.69
2022-10-06T10:19:05.782Z,40.11
2022-10-06T10:21:35.470Z,38.73
2022-10-06T10:24:15.054Z,39.10
2022-10-06T10:27:04.320Z,38.88
2022-10-06T10:30:11.471Z,40.28
2022-10-06T10:32:51.956Z,40.88
2022-10-06T10:35:25.751Z,39.61
2022-10-06T10:38:03.918Z,39.33
2022-10-06T10:40:34.738Z,37.85
2022-10-06T10:43:14.207Z,38.53
2022-10-06T10:45:47.362Z,39.39
2022-10-06T10:48:21.885Z,37.67
2022-10-06T10:50:51.883Z,38.07
2022-10-06T10:53:40.237Z,38.10
2022-10-06T10:56:13.588Z,38.45
2022-10-06T10:58:43.746Z,38.47
2022-10-06T11:01:17.660Z,42.69
2022-10-06T11:03:56.713Z,41.45
2022-10-06T11:07:00.286Z,40.53
2022-10-06T11:09:59.517Z,41.53
2022-10-06T11:12:46.175Z,41.50
2022-10-06T11:15:13.757Z,40.96
2022-10-06T11:17:44.637Z,41.29
2022-10-06T11:20:39.211Z,41.05
2022-10-06T11:23:24.240Z,39.98
2022-10-06T11:26:01.460Z,42.32
2022-10-06T11:28:43.270Z,41.82
2022-10-06T11:31:40.650Z,41.97
2022-10-06T11:34:10.123Z,43.04
2022-10-06T11:36:49.629Z,46.24
2022-10-06T11:39:37.539Z,43.79
2022-10-06T11:45:06.248Z,42.86
2022-10-06T11:48:00.193Z,43.06
2022-10-06T11:50:33.326Z,42.37
2022-10-06T11:53:01.335Z,42.51
2022-10-06T11:55:30.181Z,44.95
2022-10-06T11:58:17.864Z,41.14
2022-10-06T12:00:55.175Z,42.99
2022-10-06T12:03:29.608Z,43.80
2022-10-06T12:05:57.577Z,43.39
2022-10-06T12:08:41.639Z,42.70
2022-10-06T12:11:38.395Z,42.59
2022-10-06T12:16:00.019Z,42.03
2022-10-06T12:17:29.420Z,42.02
2022-10-06T12:20:15.970Z,43.28
2022-10-06T12:22:52.504Z,42.87
2022-10-06T12:25:42.181Z,44.11
2022-10-06T12:28:31.819Z,43.81
2022-10-06T12:31:18.651Z,44.11
2022-10-06T12:33:47.055Z,44.72
2022-10-06T12:36:22.083Z,44.59
2022-10-06T12:39:02.501Z,43.21
2022-10-06T12:41:55.454Z,43.31
2022-10-06T12:44:45.507Z,45.23
2022-10-06T12:47:34.674Z,44.16
2022-10-06T12:50:10.849Z,43.71
2022-10-06T12:53:05.967Z,44.25
2022-10-06T12:55:53.190Z,43.05
2022-10-06T12:58:31.105Z,42.28
2022-10-06T13:01:04.171Z,43.98
2022-10-06T13:03:32.310Z,43.58
2022-10-06T13:06:03.724Z,43.57
2022-10-06T13:08:34.297Z,44.31
2022-10-06T13:11:24.836Z,44.73
2022-10-06T13:13:55.116Z,44.23
2022-10-06T13:16:36.574Z,43.36
2022-10-06T13:19:04.277Z,43.04
2022-10-06T13:21:33.929Z,42.14
2022-10-06T13:24:01.797Z,42.94
2022-10-06T13:26:32.195Z,43.82
2022-10-06T13:29:00.347Z,43.19
2022-10-06T13:31:32.513Z,43.72
2022-10-06T13:34:25.175Z,43.39
2022-10-06T13:36:53.199Z,42.83
2022-10-06T13:39:26.980Z,43.78
2022-10-06T13:41:54.593Z,43.41
2022-10-06T13:44:45.879Z,43.53
2022-10-06T13:47:22.875Z,44.42
2022-10-06T13:50:03.558Z,44.30
2022-10-06T13:52:38.001Z,43.59
2022-10-06T13:55:27.614Z,42.78
2022-10-06T13:58:04.849Z,43.71
2022-10-06T14:00:46.015Z,42.42
2022-10-06T14:03:33.740Z,42.30
2022-10-06T14:06:27.934Z,41.44
2022-10-06T14:08:57.936Z,42.92
2022-10-06T14:11:28.572Z,44.65
2022-10-06T14:14:03.542Z,44.47
2022-10-06T14:16:31.296Z,45.18
2022-10-06T14:19:02.089Z,44.37
2022-10-06T14:21:33.475Z,43.80
2022-10-06T14:24:07.840Z,44.73
2022-10-06T14:26:37.663Z,45.30
2022-10-06T14:29:05.638Z,46.21
2022-10-06T14:31:34.107Z,46.94
2022-10-06T14:34:03.119Z,47.59
2022-10-06T14:36:34.504Z,47.95
2022-10-06T14:39:04.059Z,47.43
2022-10-06T14:41:32.560Z,49.06
2022-10-06T14:44:03.391Z,48.28
2022-10-06T14:46:32.034Z,46.59
2022-10-06T14:49:00.498Z,46.69
2022-10-06T14:51:30.047Z,48.95
2022-10-06T14:54:00.474Z,50.12
2022-10-06T14:56:31.733Z,48.63
2022-10-06T14:59:02.342Z,50.31
2022-10-06T15:01:31.372Z,49.15
2022-10-06T15:04:05.221Z,47.88
2022-10-06T15:06:51.853Z,47.89
2022-10-06T15:09:19.591Z,48.01
2022-10-06T15:11:47.791Z,48.45
2022-10-06T15:14:15.485Z,48.83
2022-10-06T15:16:44.568Z,48.14
2022-10-06T15:19:13.348Z,48.33
2022-10-06T15:21:45.345Z,48.60
2022-10-06T15:24:18.523Z,48.82
2022-10-06T15:27:05.926Z,49.55
2022-10-06T15:29:35.243Z,49.53
2022-10-06T15:32:06.527Z,49.93
2022-10-06T15:34:37.601Z,50.35
2022-10-06T15:37:05.632Z,50.55
2022-10-06T15:39:36.736Z,50.13
2022-10-06T15:42:05.175Z,51.18
2022-10-06T15:44:36.347Z,52.04
2022-10-06T15:47:05.814Z,52.55
2022-10-06T15:49:38.187Z,52.47
2022-10-06T15:52:07.096Z,52.68
2022-10-06T15:54:45.943Z,53.00
2022-10-06T15:57:20.324Z,52.97
2022-10-06T15:59:48.587Z,53.45
2022-10-06T16:02:18.081Z,52.63
2022-10-06T16:04:55.448Z,52.14
2022-10-06T16:07:23.375Z,52.84
2022-10-06T16:09:52.491Z,52.48
2022-10-06T16:12:22.446Z,52.19
2022-10-06T16:14:50.087Z,53.96
2022-10-06T16:17:18.820Z,53.07
2022-10-06T16:19:47.411Z,54.12
2022-10-06T16:22:17.099Z,54.03
2022-10-06T16:24:47.979Z,53.28
2022-10-06T16:27:16.092Z,53.74
2022-10-06T16:29:43.775Z,54.77
2022-10-06T16:32:11.750Z,54.65
2022-10-06T16:34:39.307Z,54.31
2022-10-06T16:37:06.956Z,55.42
2022-10-06T16:39:35.082Z,55.73
2022-10-06T16:42:02.709Z,56.04
2022-10-06T16:44:30.358Z,55.08
2022-10-06T16:46:58.397Z,54.98
2022-10-06T16:49:28.244Z,56.62
2022-10-06T16:51:55.882Z,55.80
2022-10-06T16:54:24.163Z,55.60
2022-10-06T16:56:54.075Z,57.43
2022-10-06T16:59:23.205Z,58.27
2022-10-06T17:01:52.075Z,57.59
2022-10-06T17:04:21.924Z,57.08
2022-10-06T17:06:52.290Z,58.76
2022-10-06T17:09:22.558Z,58.10
2022-10-06T17:11:52.582Z,58.09
2022-10-06T17:14:21.644Z,59.71
2022-10-06T17:16:51.612Z,59.37
2022-10-06T17:19:21.497Z,58.60
2022-10-06T17:21:54.076Z,58.33
2022-10-06T17:24:27.948Z,58.79
2022-10-06T17:26:57.699Z,58.15
2022-10-06T17:29:27.109Z,58.44
2022-10-06T17:32:00.189Z,58.96
2022-10-06T17:34:32.399Z,58.46
2022-10-06T17:37:02.038Z,58.07
2022-10-06T17:39:30.599Z,58.50
2022-10-06T17:41:58.286Z,58.39
2022-10-06T17:44:27.901Z,58.30
2022-10-06T17:46:58.480Z,58.42
2022-10-06T17:49:27.221Z,58.33
2022-10-06T17:51:55.852Z,58.77
2022-10-06T17:54:25.375Z,59.49
2022-10-06T17:56:55.938Z,59.75
2022-10-06T17:59:28.602Z,59.71
2022-10-06T18:01:58.355Z,60.48
2022-10-06T18:04:27.175Z,61.22
2022-10-06T18:06:55.516Z,60.22
2022-10-06T18:09:23.206Z,62.15
2022-10-06T18:11:56.536Z,62.43
2022-10-06T18:14:27.318Z,61.43
2022-10-06T18:16:58.532Z,62.50
2022-10-06T18:19:31.714Z,61.08
2022-10-06T18:22:03.448Z,62.37
2022-10-06T18:24:32.046Z,60.72
2022-10-06T18:27:01.499Z,62.19
2022-10-06T18:29:37.205Z,63.54
2022-10-06T18:37:43.044Z,63.36
2022-10-06T18:40:13.371Z,62.26
2022-10-06T18:42:42.082Z,60.59
2022-10-06T18:45:32.236Z,64.34
2022-10-06T18:48:20.703Z,63.93
2022-10-06T18:50:59.767Z,63.85
2022-10-06T18:53:27.364Z,64.93
2022-10-06T18:55:55.573Z,64.52
2022-10-06T18:58:23.261Z,64.36
2022-10-06T19:00:50.909Z,63.35
2022-10-06T19:03:18.938Z,65.11
2022-10-06T19:05:53.222Z,63.15
2022-10-06T19:08:21.389Z,62.57
2022-10-06T19:11:07.341Z,64.42
2022-10-06T19:13:35.460Z,65.12
2022-10-06T19:16:04.329Z,64.55
2022-10-06T19:18:37.114Z,63.72
2022-10-06T19:21:09.513Z,64.84
2022-10-06T19:23:38.793Z,65.27
2022-10-06T19:26:08.847Z,66.21
2022-10-06T19:28:37.772Z,66.19
2022-10-06T19:31:09.935Z,65.85
2022-10-06T19:33:39.410Z,65.87
2022-10-06T19:36:08.594Z,65.95
2022-10-06T19:38:38.729Z,66.37
2022-10-06T19:41:25.823Z,66.87
2022-10-06T19:43:53.655Z,63.85
2022-10-06T19:46:21.586Z,65.99
2022-10-06T19:48:56.504Z,66.01
2022-10-06T19:51:25.291Z,65.94
2022-10-06T19:53:53.001Z,65.54
2022-10-06T19:56:25.394Z,66.55
2022-10-06T19:58:53.781Z,66.00
2022-10-06T20:01:21.552Z,66.57
2022-10-06T20:03:49.561Z,64.56
2022-10-06T20:06:17.273Z,66.05
2022-10-06T20:08:44.882Z,66.54
2022-10-06T20:11:16.979Z,64.60
2022-10-06T20:13:45.400Z,63.97
2022-10-06T20:16:17.328Z,65.53
2022-10-06T20:18:48.037Z,64.17
2022-10-06T20:21:22.124Z,65.33
2022-10-06T20:23:56.913Z,63.28
2022-10-06T20:26:32.086Z,62.86
2022-10-06T20:29:04.711Z,63.73
2022-10-06T20:31:36.097Z,65.01
2022-10-06T20:34:05.074Z,65.96
2022-10-06T20:36:34.680Z,66.92
2022-10-06T20:39:21.521Z,65.95
2022-10-06T20:41:49.738Z,64.52
2022-10-06T20:44:17.456Z,65.06
2022-10-06T20:46:45.100Z,65.52
2022-10-06T20:49:17.560Z,65.00
2022-10-06T20:51:50.434Z,65.34
2022-10-06T20:54:23.903Z,66.01
2022-10-06T20:56:53.581Z,64.51
2022-10-06T20:59:23.084Z,64.12
2022-10-06T21:01:51.500Z,66.44
2022-10-06T21:04:20.387Z,68.07
2022-10-06T21:06:49.295Z,67.86
2022-10-06T21:09:18.969Z,65.28
2022-10-06T21:11:47.555Z,65.88
2022-10-06T21:14:16.162Z,64.74
2022-10-06T21:16:46.254Z,64.12
2022-10-06T21:19:18.341Z,66.52
2022-10-06T21:21:51.969Z,68.07
2022-10-06T21:24:20.604Z,68.42
2022-10-06T21:26:48.775Z,67.68
2022-10-06T21:29:16.594Z,67.22
2022-10-06T21:31:46.209Z,67.76
2022-10-06T21:34:14.652Z,68.16
2022-10-06T21:36:43.878Z,66.33
2022-10-06T21:39:12.706Z,66.10
2022-10-06T21:41:41.028Z,65.17
2022-10-06T21:44:08.680Z,66.89
2022-10-06T21:47:02.565Z,67.27
2022-10-06T21:49:30.613Z,67.55
2022-10-06T21:52:04.710Z,67.66
2022-10-06T21:54:32.699Z,66.11
2022-10-06T21:57:00.564Z,66.01
2022-10-06T21:59:28.270Z,65.42
2022-10-06T22:01:56.849Z,65.54
2022-10-06T22:04:24.881Z,68.11
2022-10-06T22:06:52.571Z,67.86
2022-10-06T22:09:20.665Z,69.41
2022-10-06T22:11:49.217Z,69.87
2022-10-06T22:14:18.800Z,69.49
2022-10-06T22:16:46.511Z,67.03
2022-10-06T22:19:16.305Z,66.04
2022-10-06T22:21:46.606Z,67.36
2022-10-06T22:24:21.557Z,66.59
2022-10-06T22:26:49.730Z,67.38
2022-10-06T22:29:19.220Z,66.62
2022-10-06T22:31:47.984Z,67.26
2022-10-06T22:34:18.789Z,67.77
2022-10-06T22:36:47.058Z,65.86
2022-10-06T22:39:14.696Z,65.51
2022-10-06T22:41:42.557Z,67.62
2022-10-06T22:44:10.467Z,66.37
2022-10-06T22:46:38.695Z,67.04
2022-10-06T22:49:06.538Z,66.93
2022-10-06T22:51:35.709Z,66.77
2022-10-06T22:54:03.820Z,66.48
2022-10-06T22:56:32.810Z,65.94
2022-10-06T22:59:01.242Z,65.66
2022-10-06T23:01:30.038Z,66.04
2022-10-06T23:03:58.254Z,65.67
2022-10-06T23:06:26.983Z,65.62
2022-10-06T23:08:54.597Z,65.97
2022-10-06T23:11:23.017Z,65.66
2022-10-06T23:13:52.939Z,65.68
2022-10-06T23:16:21.377Z,65.69
2022-10-06T23:18:49.620Z,65.99
2022-10-06T23:21:23.976Z,66.88
2022-10-06T23:23:54.833Z,65.74
2022-10-06T23:26:23.273Z,66.57
2022-10-06T23:28:56.966Z,66.61
2022-10-06T23:31:25.591Z,65.88
2022-10-06T23:33:54.962Z,66.45
2022-10-06T23:36:22.619Z,65.27
2022-10-06T23:38:50.610Z,65.76
2022-10-06T23:41:18.864Z,66.62
2022-10-06T23:43:46.792Z,65.89
2022-10-06T23:46:15.170Z,66.23
2022-10-06T23:48:43.486Z,65.92
2022-10-06T23:51:14.114Z,65.59
2022-10-06T23:53:43.021Z,64.72
2022-10-06T23:56:10.947Z,64.78
2022-10-06T23:58:38.955Z,65.24
